createdAt,value
2018-02-13T00:00:04.061Z,38.35
2018-02-13T00:01:04.036Z,38.45
2018-02-13T00:02:04.013Z,38.45
2018-02-13T00:03:03.984Z,38.45
2018-02-13T00:04:03.959Z,38.43
2018-02-13T00:05:03.934Z,38.45
2018-02-13T00:06:03.912Z,38.45
2018-02-13T00:07:03.883Z,38.35
2018-02-13T00:08:03.858Z,38.45
2018-02-13T00:09:03.834Z,38.72
2018-02-13T00:10:03.807Z,38.64
2018-02-13T00:11:03.780Z,38.74
2018-02-13T00:12:03.756Z,38.83
2018-02-13T00:13:03.730Z,38.64
2018-02-13T00:14:03.704Z,38.74
2018-02-13T00:15:03.680Z,38.83
2018-02-13T00:16:03.654Z,38.62
2018-02-13T00:17:03.628Z,38.62
2018-02-13T00:18:03.603Z,38.64
2018-02-13T00:19:03.577Z,38.83
2018-02-13T00:20:03.552Z,38.62
2018-02-13T00:21:03.527Z,38.54
2018-02-13T00:22:03.501Z,38.64
2018-02-13T00:23:03.474Z,38.81
2018-02-13T00:24:03.450Z,38.81
2018-02-13T00:25:03.426Z,38.91
2018-02-13T00:26:03.400Z,39.01
2018-02-13T00:27:03.373Z,39.20
2018-02-13T00:28:03.348Z,38.74
2018-02-13T00:29:03.322Z,38.91
2018-02-13T00:30:03.297Z,38.74
2018-02-13T00:31:03.270Z,39.11
2018-02-13T00:32:03.247Z,39.20
2018-02-13T00:33:03.220Z,39.11
2018-02-13T00:34:03.195Z,38.91
2018-02-13T00:35:03.168Z,39.01
2018-02-13T00:36:03.144Z,39.01
2018-02-13T00:37:03.119Z,39.11
2018-02-13T00:38:03.093Z,39.20
2018-02-13T00:39:03.065Z,38.81
2018-02-13T00:40:03.042Z,38.91
2018-02-13T00:41:03.017Z,39.01
2018-02-13T00:42:02.990Z,39.01
2018-02-13T00:43:02.966Z,39.01
2018-02-13T00:44:02.940Z,39.11
2018-02-13T00:45:02.914Z,39.29
2018-02-13T00:46:02.889Z,39.39
2018-02-13T00:47:02.863Z,39.01
2018-02-13T00:48:02.838Z,39.01
2018-02-13T00:49:02.812Z,39.11
2018-02-13T00:50:02.801Z,39.97
2018-02-13T00:51:02.763Z,39.39
2018-02-13T00:52:02.735Z,39.20
2018-02-13T00:53:02.709Z,39.20
2018-02-13T00:54:02.684Z,38.91
2018-02-13T00:55:02.657Z,39.20
2018-02-13T00:56:02.632Z,39.39
2018-02-13T00:57:02.607Z,39.01
2018-02-13T00:58:02.582Z,39.20
2018-02-13T00:59:02.556Z,39.29
2018-02-13T01:00:02.530Z,39.20
2018-02-13T01:01:02.507Z,38.91
2018-02-13T01:02:02.480Z,39.20
2018-02-13T01:03:02.453Z,39.11
2018-02-13T01:04:02.428Z,39.29
2018-02-13T01:05:02.403Z,38.72
2018-02-13T01:06:02.377Z,38.81
2018-02-13T01:07:02.350Z,38.91
2018-02-13T01:08:02.325Z,39.11
2018-02-13T01:09:02.302Z,38.72
2018-02-13T01:10:02.274Z,39.01
2018-02-13T01:11:02.248Z,38.91
2018-02-13T01:12:02.221Z,39.11
2018-02-13T01:13:02.196Z,39.01
2018-02-13T01:14:02.170Z,38.72
2018-02-13T01:15:02.144Z,39.11
2018-02-13T01:16:02.119Z,38.81
2018-02-13T01:17:02.093Z,39.11
2018-02-13T01:18:02.070Z,39.01
2018-02-13T01:19:02.042Z,39.11
2018-02-13T01:20:02.016Z,39.11
2018-02-13T01:21:01.990Z,39.11
2018-02-13T01:22:01.966Z,39.29
2018-02-13T01:23:01.940Z,38.81
2018-02-13T01:24:01.914Z,38.81
2018-02-13T01:25:01.889Z,39.11
2018-02-13T01:26:01.863Z,39.01
2018-02-13T01:27:01.838Z,39.01
2018-02-13T01:28:01.814Z,39.11
2018-02-13T01:29:01.786Z,39.11
2018-02-13T01:30:01.762Z,39.20
2018-02-13T01:31:01.734Z,39.20
2018-02-13T01:32:01.710Z,39.29
2018-02-13T01:33:01.684Z,38.91
2018-02-13T01:34:01.660Z,38.91
2018-02-13T01:35:01.635Z,38.72
2018-02-13T01:36:01.608Z,39.29
2018-02-13T01:37:01.583Z,38.91
2018-02-13T01:38:01.558Z,39.01
2018-02-13T01:39:01.531Z,39.11
2018-02-13T01:40:01.506Z,39.20
2018-02-13T01:41:01.481Z,39.01
2018-02-13T01:42:01.454Z,39.20
2018-02-13T01:43:01.426Z,39.11
2018-02-13T01:44:01.400Z,39.01
2018-02-13T01:45:01.434Z,39.11
2018-02-13T01:46:01.350Z,38.91
2018-02-13T01:47:01.324Z,39.09
2018-02-13T01:48:01.298Z,39.01
2018-02-13T01:49:01.274Z,38.91
2018-02-13T01:50:01.250Z,39.11
2018-02-13T01:51:01.220Z,39.20
2018-02-13T01:52:01.195Z,39.11
2018-02-13T01:53:01.168Z,39.11
2018-02-13T01:54:01.143Z,38.91
2018-02-13T01:55:01.117Z,38.53
2018-02-13T01:56:01.092Z,39.11
2018-02-13T01:57:01.067Z,38.91
2018-02-13T01:58:01.044Z,38.91
2018-02-13T01:59:01.013Z,39.11
2018-02-13T02:00:00.990Z,39.20
2018-02-13T02:01:00.963Z,38.91
2018-02-13T02:02:00.936Z,39.20
2018-02-13T02:03:00.914Z,39.20
2018-02-13T02:04:00.885Z,38.91
2018-02-13T02:05:00.859Z,39.11
2018-02-13T02:06:00.833Z,39.11
2018-02-13T02:07:00.807Z,39.20
2018-02-13T02:08:00.781Z,39.20
2018-02-13T02:09:00.755Z,39.29
2018-02-13T02:10:00.730Z,38.72
2018-02-13T02:11:00.704Z,39.09
2018-02-13T02:12:00.678Z,38.41
2018-02-13T02:13:00.653Z,38.91
2018-02-13T02:14:00.627Z,39.01
2018-02-13T02:15:00.602Z,39.01
2018-02-13T02:16:00.575Z,39.20
2018-02-13T02:17:00.549Z,38.91
2018-02-13T02:18:00.527Z,38.81
2018-02-13T02:19:00.497Z,38.79
2018-02-13T02:20:00.471Z,38.89
2018-02-13T02:21:00.444Z,39.20
2018-02-13T02:22:00.419Z,38.79
2018-02-13T02:23:00.393Z,38.89
2018-02-13T02:24:00.368Z,38.99
2018-02-13T02:25:00.340Z,38.91
2018-02-13T02:26:00.316Z,39.18
2018-02-13T02:27:00.290Z,38.99
2018-02-13T02:28:00.263Z,38.89
2018-02-13T02:29:00.243Z,38.89
2018-02-13T02:30:00.212Z,38.89
2018-02-13T02:31:00.186Z,38.99
2018-02-13T02:32:00.161Z,39.09
2018-02-13T02:33:00.134Z,39.09
2018-02-13T02:34:00.109Z,39.28
2018-02-13T02:35:00.082Z,38.99
2018-02-13T02:36:00.056Z,39.56
2018-02-13T02:37:00.032Z,39.09
2018-02-13T02:38:00.005Z,39.18
2018-02-13T02:38:59.978Z,39.18
2018-02-13T02:39:59.952Z,39.18
2018-02-13T02:40:59.927Z,39.09
2018-02-13T02:41:59.902Z,38.89
2018-02-13T02:42:59.875Z,38.60
2018-02-13T02:43:59.848Z,39.47
2018-02-13T02:44:59.823Z,38.79
2018-02-13T02:45:59.797Z,38.70
2018-02-13T02:46:59.770Z,38.41
2018-02-13T02:47:59.745Z,38.99
2018-02-13T02:48:59.723Z,39.18
2018-02-13T02:49:59.694Z,38.99
2018-02-13T02:50:59.666Z,38.70
2018-02-13T02:51:59.642Z,39.18
2018-02-13T02:52:59.614Z,38.99
2018-02-13T02:53:59.590Z,38.89
2018-02-13T02:54:59.563Z,39.09
2018-02-13T02:55:59.537Z,39.18
2018-02-13T02:56:59.512Z,38.89
2018-02-13T02:57:59.485Z,39.18
2018-02-13T02:58:59.459Z,39.09
2018-02-13T02:59:59.434Z,38.89
2018-02-13T03:00:59.409Z,39.18
2018-02-13T03:01:59.383Z,39.18
2018-02-13T03:02:59.357Z,38.99
2018-02-13T03:03:59.333Z,38.99
2018-02-13T03:04:59.305Z,39.09
2018-02-13T03:05:59.279Z,38.89
2018-02-13T03:06:59.253Z,39.18
2018-02-13T03:07:59.231Z,39.18
2018-02-13T03:08:59.200Z,39.09
2018-02-13T03:09:59.175Z,38.99
2018-02-13T03:10:59.150Z,39.09
2018-02-13T03:11:59.123Z,39.47
2018-02-13T03:12:59.097Z,39.09
2018-02-13T03:13:59.072Z,39.09
2018-02-13T03:14:59.045Z,39.18
2018-02-13T03:15:59.022Z,39.09
2018-02-13T03:16:58.993Z,38.79
2018-02-13T03:17:58.971Z,38.99
2018-02-13T03:18:58.942Z,38.99
2018-02-13T03:19:58.918Z,39.18
2018-02-13T03:20:58.894Z,38.89
2018-02-13T03:21:58.866Z,39.18
2018-02-13T03:22:58.840Z,38.79
2018-02-13T03:23:58.814Z,38.89
2018-02-13T03:24:58.788Z,39.28
2018-02-13T03:25:58.763Z,39.95
2018-02-13T03:26:58.735Z,39.76
2018-02-13T03:27:58.710Z,39.95
2018-02-13T03:28:58.688Z,39.86
2018-02-13T03:29:58.657Z,39.76
2018-02-13T03:30:58.631Z,39.66
2018-02-13T03:31:58.606Z,39.37
2018-02-13T03:32:58.580Z,39.09
2018-02-13T03:33:58.554Z,39.47
2018-02-13T03:34:58.527Z,39.09
2018-02-13T03:35:58.501Z,38.89
2018-02-13T03:36:58.478Z,39.47
2018-02-13T03:37:58.452Z,39.28
2018-02-13T03:38:58.424Z,39.28
2018-02-13T03:39:58.397Z,39.18
2018-02-13T03:40:58.371Z,39.86
2018-02-13T03:41:58.344Z,39.47
2018-02-13T03:42:58.319Z,38.99
2018-02-13T03:43:58.292Z,39.18
2018-02-13T03:44:58.266Z,39.09
2018-02-13T03:45:58.240Z,38.89
2018-02-13T03:46:58.215Z,38.79
2018-02-13T03:47:58.189Z,38.89
2018-02-13T03:48:58.160Z,38.89
2018-02-13T03:49:58.135Z,38.70
2018-02-13T03:50:58.107Z,38.89
2018-02-13T03:51:58.081Z,38.60
2018-02-13T03:52:58.055Z,38.41
2018-02-13T03:53:58.030Z,38.72
2018-02-13T03:54:58.000Z,38.62
2018-02-13T03:55:57.975Z,38.72
2018-02-13T03:56:57.948Z,38.43
2018-02-13T03:57:57.922Z,38.43
2018-02-13T03:58:57.895Z,38.33
2018-02-13T03:59:57.868Z,37.85
2018-02-13T04:00:57.842Z,37.95
2018-02-13T04:01:57.816Z,38.33
2018-02-13T04:02:57.788Z,38.24
2018-02-13T04:03:57.761Z,37.95
2018-02-13T04:04:57.734Z,37.85
2018-02-13T04:05:57.708Z,37.95
2018-02-13T04:06:57.681Z,38.04
2018-02-13T04:07:57.654Z,37.85
2018-02-13T04:08:57.627Z,38.04
2018-02-13T04:09:57.601Z,38.04
2018-02-13T04:10:57.573Z,37.66
2018-02-13T04:11:57.547Z,37.19
2018-02-13T04:12:57.519Z,37.48
2018-02-13T04:13:57.493Z,37.19
2018-02-13T04:14:57.465Z,36.52
2018-02-13T04:15:57.438Z,37.18
2018-02-13T04:16:57.413Z,37.77
2018-02-13T04:17:57.385Z,37.58
2018-02-13T04:18:57.358Z,37.39
2018-02-13T04:19:57.331Z,37.10
2018-02-13T04:20:57.304Z,37.19
2018-02-13T04:21:57.278Z,37.29
2018-02-13T04:22:57.250Z,37.39
2018-02-13T04:23:57.222Z,37.29
2018-02-13T04:24:57.198Z,37.29
2018-02-13T04:25:57.171Z,37.48
2018-02-13T04:26:57.145Z,37.29
2018-02-13T04:27:57.117Z,37.39
2018-02-13T04:28:57.093Z,37.01
2018-02-13T04:29:57.064Z,37.68
2018-02-13T04:30:57.038Z,37.48
2018-02-13T04:31:57.010Z,37.68
2018-02-13T04:32:56.983Z,37.77
2018-02-13T04:33:56.956Z,38.06
2018-02-13T04:34:56.930Z,37.76
2018-02-13T04:35:56.903Z,38.06
2018-02-13T04:36:56.877Z,38.04
2018-02-13T04:37:56.851Z,38.04
2018-02-13T04:38:56.823Z,38.24
2018-02-13T04:39:56.797Z,37.76
2018-02-13T04:40:56.771Z,37.27
2018-02-13T04:41:56.744Z,38.04
2018-02-13T04:42:56.718Z,37.56
2018-02-13T04:43:56.692Z,37.95
2018-02-13T04:44:56.665Z,37.85
2018-02-13T04:45:56.638Z,37.85
2018-02-13T04:46:56.613Z,37.18
2018-02-13T04:47:56.587Z,37.76
2018-02-13T04:48:56.561Z,37.56
2018-02-13T04:49:56.535Z,38.14
2018-02-13T04:50:56.508Z,37.95
2018-02-13T04:51:56.484Z,37.95
2018-02-13T04:52:56.456Z,38.04
2018-02-13T04:53:56.430Z,38.14
2018-02-13T04:54:56.403Z,37.85
2018-02-13T04:55:56.377Z,38.24
2018-02-13T04:56:56.350Z,37.95
2018-02-13T04:57:56.325Z,38.14
2018-02-13T04:58:56.297Z,37.37
2018-02-13T04:59:56.273Z,37.95
2018-02-13T05:00:56.246Z,38.14
2018-02-13T05:01:56.222Z,36.99
2018-02-13T05:02:56.193Z,37.66
2018-02-13T05:03:56.168Z,38.24
2018-02-13T05:04:56.142Z,38.04
2018-02-13T05:05:56.114Z,37.95
2018-02-13T05:06:56.088Z,38.14
2018-02-13T05:07:56.062Z,38.14
2018-02-13T05:08:56.036Z,38.24
2018-02-13T05:09:56.010Z,37.37
2018-02-13T05:10:55.982Z,38.14
2018-02-13T05:11:55.960Z,38.14
2018-02-13T05:12:55.930Z,37.95
2018-02-13T05:13:55.902Z,37.37
2018-02-13T05:14:55.876Z,37.18
2018-02-13T05:15:55.850Z,36.51
2018-02-13T05:16:55.823Z,37.27
2018-02-13T05:17:55.795Z,36.51
2018-02-13T05:18:55.769Z,36.99
2018-02-13T05:19:55.743Z,36.99
2018-02-13T05:20:55.716Z,36.51
2018-02-13T05:21:55.689Z,36.89
2018-02-13T05:22:55.661Z,36.89
2018-02-13T05:23:55.635Z,37.37
2018-02-13T05:24:55.610Z,36.69
2018-02-13T05:25:55.582Z,36.31
2018-02-13T05:26:55.555Z,37.08
2018-02-13T05:27:55.530Z,36.69
2018-02-13T05:28:55.502Z,36.69
2018-02-13T05:29:55.475Z,36.89
2018-02-13T05:30:55.448Z,36.79
2018-02-13T05:31:55.422Z,36.89
2018-02-13T05:32:55.395Z,37.08
2018-02-13T05:33:55.369Z,36.99
2018-02-13T05:34:55.341Z,37.08
2018-02-13T05:35:55.315Z,37.37
2018-02-13T05:36:55.296Z,37.08
2018-02-13T05:37:55.262Z,37.08
2018-02-13T05:38:55.234Z,37.18
2018-02-13T05:39:55.209Z,37.37
2018-02-13T05:40:55.182Z,37.08
2018-02-13T05:41:55.156Z,37.08
2018-02-13T05:42:55.128Z,37.37
2018-02-13T05:43:55.103Z,37.76
2018-02-13T05:44:55.075Z,37.95
2018-02-13T05:45:55.051Z,37.95
2018-02-13T05:46:55.023Z,38.24
2018-02-13T05:47:54.996Z,37.85
2018-02-13T05:48:54.970Z,37.46
2018-02-13T05:49:54.944Z,37.85
2018-02-13T05:50:54.918Z,37.95
2018-02-13T05:51:54.890Z,38.04
2018-02-13T05:52:54.863Z,37.95
2018-02-13T05:53:54.836Z,37.85
2018-02-13T05:54:54.809Z,38.33
2018-02-13T05:55:54.783Z,38.62
2018-02-13T05:56:54.756Z,38.53
2018-02-13T05:57:54.733Z,38.24
2018-02-13T05:58:54.702Z,37.46
2018-02-13T05:59:54.675Z,38.14
2018-02-13T06:00:54.648Z,38.24
2018-02-13T06:01:54.637Z,37.85
2018-02-13T06:02:54.595Z,38.53
2018-02-13T06:03:54.568Z,38.33
2018-02-13T06:04:54.591Z,38.24
2018-02-13T06:05:54.515Z,38.33
2018-02-13T06:06:54.536Z,38.24
2018-02-13T06:07:54.459Z,38.14
2018-02-13T06:08:54.432Z,38.04
2018-02-13T06:09:54.408Z,37.95
2018-02-13T06:10:54.377Z,38.24
2018-02-13T06:11:54.352Z,38.24
2018-02-13T06:12:54.325Z,38.53
2018-02-13T06:13:54.299Z,38.33
2018-02-13T06:14:54.271Z,38.24
2018-02-13T06:15:54.243Z,37.76
2018-02-13T06:16:54.218Z,36.69
2018-02-13T06:17:54.190Z,38.14
2018-02-13T06:18:54.164Z,38.24
2018-02-13T06:19:54.141Z,38.14
2018-02-13T06:20:54.126Z,37.85
2018-02-13T06:21:54.082Z,38.04
2018-02-13T06:22:54.054Z,38.33
2018-02-13T06:23:54.028Z,37.58
2018-02-13T06:24:54.001Z,38.14
2018-02-13T06:25:53.973Z,37.37
2018-02-13T06:26:53.946Z,38.04
2018-02-13T06:27:53.920Z,37.76
2018-02-13T06:28:53.892Z,37.66
2018-02-13T06:29:53.866Z,38.24
2018-02-13T06:30:53.837Z,38.14
2018-02-13T06:31:53.812Z,38.14
2018-02-13T06:32:53.785Z,36.89
2018-02-13T06:33:53.758Z,37.27
2018-02-13T06:34:53.729Z,36.99
2018-02-13T06:35:53.704Z,36.99
2018-02-13T06:36:53.679Z,37.66
2018-02-13T06:37:53.650Z,37.39
2018-02-13T06:38:53.622Z,36.99
2018-02-13T06:39:53.594Z,37.95
2018-02-13T06:40:53.568Z,38.24
2018-02-13T06:41:53.542Z,36.89
2018-02-13T06:42:53.513Z,37.95
2018-02-13T06:43:53.487Z,38.04
2018-02-13T06:44:53.460Z,36.31
2018-02-13T06:45:53.434Z,36.02
2018-02-13T06:46:53.405Z,36.69
2018-02-13T06:47:53.378Z,35.73
2018-02-13T06:48:53.351Z,35.73
2018-02-13T06:49:53.325Z,35.64
2018-02-13T06:50:53.297Z,36.02
2018-02-13T06:51:53.270Z,36.21
2018-02-13T06:52:53.244Z,35.64
2018-02-13T06:53:53.217Z,35.83
2018-02-13T06:54:53.189Z,36.51
2018-02-13T06:55:53.162Z,35.25
2018-02-13T06:56:53.135Z,35.73
2018-02-13T06:57:53.109Z,36.41
2018-02-13T06:58:53.081Z,35.83
2018-02-13T06:59:53.053Z,35.83
2018-02-13T07:00:53.027Z,36.69
2018-02-13T07:01:53.000Z,36.60
2018-02-13T07:02:52.973Z,35.83
2018-02-13T07:03:52.992Z,34.86
2018-02-13T07:04:52.918Z,35.64
2018-02-13T07:05:52.892Z,36.41
2018-02-13T07:06:52.870Z,35.16
2018-02-13T07:07:52.838Z,35.42
2018-02-13T07:08:52.811Z,35.83
2018-02-13T07:09:52.788Z,34.86
2018-02-13T07:10:52.756Z,36.60
2018-02-13T07:11:52.730Z,36.21
2018-02-13T07:12:52.708Z,35.93
2018-02-13T07:13:52.675Z,34.96
2018-02-13T07:14:52.648Z,34.96
2018-02-13T07:15:52.621Z,36.21
2018-02-13T07:16:52.595Z,35.64
2018-02-13T07:17:52.568Z,34.77
2018-02-13T07:18:52.539Z,34.19
2018-02-13T07:19:52.514Z,35.73
2018-02-13T07:20:52.485Z,35.25
2018-02-13T07:21:52.462Z,35.54
2018-02-13T07:22:52.430Z,34.75
2018-02-13T07:23:52.407Z,36.02
2018-02-13T07:24:52.377Z,35.93
2018-02-13T07:25:52.351Z,36.69
2018-02-13T07:26:52.322Z,35.54
2018-02-13T07:27:52.295Z,34.96
2018-02-13T07:28:52.268Z,35.73
2018-02-13T07:29:52.242Z,35.64
2018-02-13T07:30:52.216Z,35.35
2018-02-13T07:31:52.188Z,34.58
2018-02-13T07:32:52.160Z,34.86
2018-02-13T07:33:52.132Z,34.96
2018-02-13T07:34:52.105Z,35.73
2018-02-13T07:35:52.079Z,33.91
2018-02-13T07:36:52.052Z,34.96
2018-02-13T07:37:52.025Z,34.19
2018-02-13T07:38:51.996Z,34.19
2018-02-13T07:39:51.969Z,35.06
2018-02-13T07:40:51.943Z,33.13
2018-02-13T07:41:51.916Z,34.38
2018-02-13T07:42:51.887Z,34.67
2018-02-13T07:43:51.866Z,33.61
2018-02-13T07:44:51.834Z,34.09
2018-02-13T07:45:51.806Z,35.44
2018-02-13T07:46:51.778Z,35.35
2018-02-13T07:47:51.751Z,34.86
2018-02-13T07:48:51.725Z,34.29
2018-02-13T07:49:51.696Z,34.19
2018-02-13T07:50:51.672Z,35.06
2018-02-13T07:51:51.642Z,34.58
2018-02-13T07:52:51.614Z,33.71
2018-02-13T07:53:51.590Z,34.48
2018-02-13T07:54:51.560Z,35.06
2018-02-13T07:55:51.532Z,33.82
2018-02-13T07:56:51.506Z,33.03
2018-02-13T07:57:51.484Z,34.48
2018-02-13T07:58:51.450Z,34.19
2018-02-13T07:59:51.424Z,33.81
2018-02-13T08:00:51.397Z,32.75
2018-02-13T08:01:51.371Z,34.50
2018-02-13T08:02:51.342Z,34.30
2018-02-13T08:03:51.315Z,33.73
2018-02-13T08:04:51.288Z,33.25
2018-02-13T08:05:51.262Z,33.61
2018-02-13T08:06:51.241Z,33.15
2018-02-13T08:07:51.206Z,33.82
2018-02-13T08:08:51.179Z,33.73
2018-02-13T08:09:51.151Z,33.34
2018-02-13T08:10:51.124Z,31.90
2018-02-13T08:11:51.097Z,33.51
2018-02-13T08:12:51.072Z,33.73
2018-02-13T08:13:51.043Z,33.53
2018-02-13T08:14:51.015Z,34.11
2018-02-13T08:15:50.987Z,33.53
2018-02-13T08:16:50.959Z,32.86
2018-02-13T08:17:50.934Z,31.70
2018-02-13T08:18:50.905Z,32.47
2018-02-13T08:19:50.879Z,33.82
2018-02-13T08:20:50.851Z,33.63
2018-02-13T08:21:50.825Z,32.95
2018-02-13T08:22:50.796Z,32.95
2018-02-13T08:23:50.770Z,33.73
2018-02-13T08:24:50.744Z,33.34
2018-02-13T08:25:50.714Z,32.38
2018-02-13T08:26:50.688Z,33.34
2018-02-13T08:27:50.659Z,32.67
2018-02-13T08:28:50.633Z,33.73
2018-02-13T08:29:50.607Z,33.25
2018-02-13T08:30:50.577Z,32.38
2018-02-13T08:31:50.552Z,32.67
2018-02-13T08:32:50.524Z,32.95
2018-02-13T08:33:50.497Z,33.44
2018-02-13T08:34:50.469Z,33.74
2018-02-13T08:35:50.442Z,32.39
2018-02-13T08:36:50.415Z,31.80
2018-02-13T08:37:50.388Z,31.70
2018-02-13T08:38:50.362Z,32.67
2018-02-13T08:39:50.358Z,33.53
2018-02-13T08:40:50.307Z,33.65
2018-02-13T08:41:50.279Z,32.39
2018-02-13T08:42:50.251Z,33.84
2018-02-13T08:43:50.224Z,32.68
2018-02-13T08:44:50.196Z,32.20
2018-02-13T08:45:50.171Z,33.45
2018-02-13T08:46:50.144Z,32.68
2018-02-13T08:47:50.116Z,32.68
2018-02-13T08:48:50.090Z,33.36
2018-02-13T08:49:50.063Z,32.29
2018-02-13T08:50:50.035Z,32.39
2018-02-13T08:51:50.007Z,33.26
2018-02-13T08:52:49.982Z,33.55
2018-02-13T08:53:49.954Z,32.68
2018-02-13T08:54:49.927Z,32.68
2018-02-13T08:55:49.901Z,32.29
2018-02-13T08:56:49.876Z,32.10
2018-02-13T08:57:49.848Z,32.49
2018-02-13T08:58:49.820Z,32.49
2018-02-13T08:59:49.794Z,32.49
2018-02-13T09:00:49.767Z,33.07
2018-02-13T09:01:49.741Z,31.33
2018-02-13T09:02:49.712Z,32.49
2018-02-13T09:03:49.686Z,31.91
2018-02-13T09:04:49.715Z,32.59
2018-02-13T09:05:49.633Z,31.43
2018-02-13T09:06:49.634Z,32.12
2018-02-13T09:07:49.578Z,32.31
2018-02-13T09:08:49.551Z,32.12
2018-02-13T09:09:49.526Z,32.31
2018-02-13T09:10:49.498Z,33.09
2018-02-13T09:11:49.474Z,32.31
2018-02-13T09:12:49.446Z,30.87
2018-02-13T09:13:49.418Z,31.54
2018-02-13T09:14:49.392Z,32.99
2018-02-13T09:15:49.366Z,32.41
2018-02-13T09:16:49.338Z,31.63
2018-02-13T09:17:49.313Z,31.83
2018-02-13T09:18:49.283Z,32.41
2018-02-13T09:19:49.258Z,32.91
2018-02-13T09:20:49.232Z,31.63
2018-02-13T09:21:49.204Z,31.25
2018-02-13T09:22:49.178Z,32.81
2018-02-13T09:23:49.149Z,31.65
2018-02-13T09:24:49.124Z,31.25
2018-02-13T09:25:49.098Z,31.15
2018-02-13T09:26:49.075Z,31.35
2018-02-13T09:27:49.044Z,30.67
2018-02-13T09:28:49.018Z,30.96
2018-02-13T09:29:48.993Z,30.58
2018-02-13T09:30:48.964Z,30.67
2018-02-13T09:31:48.944Z,31.75
2018-02-13T09:32:48.911Z,31.07
2018-02-13T09:33:48.887Z,31.17
2018-02-13T09:34:48.857Z,31.65
2018-02-13T09:35:48.831Z,30.40
2018-02-13T09:36:48.803Z,30.30
2018-02-13T09:37:48.778Z,31.27
2018-02-13T09:38:48.751Z,31.56
2018-02-13T09:39:48.724Z,30.98
2018-02-13T09:40:48.698Z,30.59
2018-02-13T09:41:48.672Z,30.30
2018-02-13T09:42:48.644Z,31.17
2018-02-13T09:43:48.617Z,30.59
2018-02-13T09:44:48.590Z,31.56
2018-02-13T09:45:48.596Z,30.59
2018-02-13T09:46:48.539Z,30.59
2018-02-13T09:47:48.514Z,30.49
2018-02-13T09:48:48.485Z,31.46
2018-02-13T09:49:48.459Z,30.49
2018-02-13T09:50:48.432Z,30.80
2018-02-13T09:51:48.406Z,30.79
2018-02-13T09:52:48.379Z,30.41
2018-02-13T09:53:48.354Z,30.61
2018-02-13T09:54:48.326Z,30.70
2018-02-13T09:55:48.300Z,30.61
2018-02-13T09:56:48.274Z,30.90
2018-02-13T09:57:48.248Z,30.22
2018-02-13T09:58:48.221Z,30.41
2018-02-13T09:59:48.193Z,30.22
2018-02-13T10:00:48.169Z,29.55
2018-02-13T10:01:48.144Z,30.32
2018-02-13T10:02:48.116Z,30.61
2018-02-13T10:03:48.090Z,29.83
2018-02-13T10:04:48.064Z,30.80
2018-02-13T10:05:48.038Z,29.45
2018-02-13T10:06:48.011Z,29.35
2018-02-13T10:07:47.985Z,30.51
2018-02-13T10:08:47.958Z,30.51
2018-02-13T10:09:47.933Z,28.87
2018-02-13T10:10:47.906Z,29.35
2018-02-13T10:11:47.884Z,29.16
2018-02-13T10:12:47.854Z,29.35
2018-02-13T10:13:47.828Z,30.24
2018-02-13T10:14:47.801Z,29.16
2018-02-13T10:15:47.775Z,30.52
2018-02-13T10:16:47.750Z,30.43
2018-02-13T10:17:47.752Z,30.52
2018-02-13T10:18:47.697Z,29.17
2018-02-13T10:19:47.670Z,29.94
2018-02-13T10:20:47.644Z,30.52
2018-02-13T10:21:47.620Z,30.24
2018-02-13T10:22:47.592Z,29.75
2018-02-13T10:23:47.568Z,29.17
2018-02-13T10:24:47.542Z,29.46
2018-02-13T10:25:47.516Z,28.98
2018-02-13T10:26:47.489Z,29.36
2018-02-13T10:27:47.465Z,29.27
2018-02-13T10:28:47.438Z,29.27
2018-02-13T10:29:47.412Z,30.62
2018-02-13T10:30:47.385Z,30.72
2018-02-13T10:31:47.360Z,29.27
2018-02-13T10:32:47.334Z,28.98
2018-02-13T10:33:47.309Z,29.27
2018-02-13T10:34:47.283Z,28.98
2018-02-13T10:35:47.271Z,30.05
2018-02-13T10:36:47.232Z,29.96
2018-02-13T10:37:47.205Z,30.63
2018-02-13T10:38:47.180Z,30.25
2018-02-13T10:39:47.154Z,30.25
2018-02-13T10:40:47.130Z,29.38
2018-02-13T10:41:47.102Z,29.19
2018-02-13T10:42:47.076Z,29.57
2018-02-13T10:43:47.052Z,29.09
2018-02-13T10:44:47.025Z,28.80
2018-02-13T10:45:47.000Z,28.13
2018-02-13T10:46:46.974Z,29.19
2018-02-13T10:47:46.949Z,29.57
2018-02-13T10:48:46.923Z,30.35
2018-02-13T10:49:46.948Z,30.35
2018-02-13T10:50:46.872Z,29.86
2018-02-13T10:51:46.847Z,29.28
2018-02-13T10:52:46.820Z,29.86
2018-02-13T10:53:46.807Z,29.28
2018-02-13T10:54:46.769Z,28.99
2018-02-13T10:55:46.745Z,29.86
2018-02-13T10:56:46.719Z,30.54
2018-02-13T10:57:46.693Z,30.54
2018-02-13T10:58:46.669Z,30.54
2018-02-13T10:59:46.644Z,30.46
2018-02-13T11:00:46.618Z,30.75
2018-02-13T11:01:46.594Z,31.04
2018-02-13T11:02:46.568Z,30.85
2018-02-13T11:03:46.542Z,31.04
2018-02-13T11:04:46.518Z,30.85
2018-02-13T11:05:46.495Z,30.75
2018-02-13T11:06:46.466Z,30.85
2018-02-13T11:07:46.443Z,29.49
2018-02-13T11:08:46.418Z,29.59
2018-02-13T11:09:46.393Z,28.62
2018-02-13T11:10:46.367Z,28.81
2018-02-13T11:11:46.342Z,29.01
2018-02-13T11:12:46.318Z,28.91
2018-02-13T11:13:46.293Z,28.91
2018-02-13T11:14:46.268Z,28.14
2018-02-13T11:15:46.243Z,28.04
2018-02-13T11:16:46.219Z,28.52
2018-02-13T11:17:46.194Z,29.01
2018-02-13T11:18:46.169Z,28.81
2018-02-13T11:19:46.155Z,29.30
2018-02-13T11:20:46.118Z,29.20
2018-02-13T11:21:46.095Z,29.97
2018-02-13T11:22:46.069Z,30.27
2018-02-13T11:23:46.044Z,30.75
2018-02-13T11:24:46.020Z,30.75
2018-02-13T11:25:45.995Z,30.65
2018-02-13T11:26:45.969Z,30.55
2018-02-13T11:27:45.945Z,30.94
2018-02-13T11:28:45.921Z,30.46
2018-02-13T11:29:45.898Z,30.55
2018-02-13T11:30:45.872Z,30.55
2018-02-13T11:31:45.848Z,30.46
2018-02-13T11:32:45.863Z,30.75
2018-02-13T11:33:45.800Z,30.94
2018-02-13T11:34:45.774Z,31.04
2018-02-13T11:35:45.751Z,30.46
2018-02-13T11:36:45.726Z,30.65
2018-02-13T11:37:45.702Z,30.55
2018-02-13T11:38:45.677Z,30.96
2018-02-13T11:39:45.653Z,30.94
2018-02-13T11:40:45.627Z,30.57
2018-02-13T11:41:45.604Z,30.76
2018-02-13T11:42:45.579Z,30.57
2018-02-13T11:43:45.555Z,30.96
2018-02-13T11:44:45.532Z,31.15
2018-02-13T11:45:45.508Z,30.38
2018-02-13T11:46:45.484Z,30.96
2018-02-13T11:47:45.460Z,30.96
2018-02-13T11:48:45.436Z,31.05
2018-02-13T11:49:45.411Z,31.54
2018-02-13T11:50:45.390Z,30.76
2018-02-13T11:51:45.365Z,30.47
2018-02-13T11:52:45.341Z,30.18
2018-02-13T11:53:45.318Z,30.20
2018-02-13T11:54:45.295Z,30.10
2018-02-13T11:55:45.271Z,29.91
2018-02-13T11:56:45.302Z,30.29
2018-02-13T11:57:45.224Z,30.39
2018-02-13T11:58:45.200Z,30.39
2018-02-13T11:59:45.178Z,30.29
2018-02-13T12:00:45.156Z,29.81
2018-02-13T12:01:45.133Z,29.91
2018-02-13T12:02:45.109Z,29.81
2018-02-13T12:03:45.086Z,30.20
2018-02-13T12:04:45.063Z,30.29
2018-02-13T12:05:45.040Z,30.20
2018-02-13T12:06:45.017Z,30.39
2018-02-13T12:07:44.994Z,30.39
2018-02-13T12:08:44.971Z,30.49
2018-02-13T12:09:44.948Z,30.49
2018-02-13T12:10:44.924Z,30.98
2018-02-13T12:11:44.903Z,30.88
2018-02-13T12:12:44.879Z,30.68
2018-02-13T12:13:44.855Z,30.58
2018-02-13T12:14:44.831Z,31.54
2018-02-13T12:15:44.807Z,30.57
2018-02-13T12:16:44.785Z,31.26
2018-02-13T12:17:44.762Z,30.66
2018-02-13T12:18:44.738Z,30.38
2018-02-13T12:19:44.715Z,30.10
2018-02-13T12:20:44.691Z,30.28
2018-02-13T12:21:44.667Z,30.57
2018-02-13T12:22:44.644Z,30.76
2018-02-13T12:23:44.621Z,31.16
2018-02-13T12:24:44.597Z,30.98
2018-02-13T12:25:44.574Z,30.49
2018-02-13T12:26:44.550Z,30.57
2018-02-13T12:27:44.527Z,30.68
2018-02-13T12:28:44.502Z,30.28
2018-02-13T12:29:44.479Z,31.07
2018-02-13T12:30:44.456Z,30.98
2018-02-13T12:31:44.434Z,30.68
2018-02-13T12:32:44.409Z,30.78
2018-02-13T12:33:44.385Z,30.88
2018-02-13T12:34:44.361Z,30.58
2018-02-13T12:35:44.338Z,30.39
2018-02-13T12:36:44.316Z,29.43
2018-02-13T12:37:44.293Z,29.61
2018-02-13T12:38:44.272Z,29.52
2018-02-13T12:39:44.246Z,29.23
2018-02-13T12:40:44.221Z,29.33
2018-02-13T12:41:44.198Z,28.17
2018-02-13T12:42:44.175Z,28.45
2018-02-13T12:43:44.152Z,28.65
2018-02-13T12:44:44.129Z,29.33
2018-02-13T12:45:44.106Z,29.43
2018-02-13T12:46:44.081Z,29.52
2018-02-13T12:47:44.058Z,29.63
2018-02-13T12:48:44.034Z,29.44
2018-02-13T12:49:44.011Z,29.34
2018-02-13T12:50:43.990Z,28.76
2018-02-13T12:51:43.965Z,28.85